Архив погоды в Нижнем Тагиле

Метеограмма Нижний Тагил
Вторник, 24 Апреля
Время местн. Темп Ветер Видим Явления Облачность нижн/средн/верх Атм. давл. Влжн Точка росы ВНГО R Сост. почвы Tg s
Напр Скр Прв ур.ст ур.м изм
11:00 +0.2° С-З 3 - 2 км слабый ливневый дождь со снегом облачно 727 751 +0.9 100% +0.2° 1 км - - - -
08:00 +0.1° С-З 4 - 4 км слабый непрерывный снег {дождь} облачно 726 750 +0.2 100% +0.1° более 2.5 км 0.9 Влажная (без луж) -5° -
05:00 +1.2° С-З 3 - 10 км слабая непрерывная морось облачно 726 750 -0.1 100% +1.2° 600 м - - - -
02:00 +2.2° С-З 2 - 20 км - облачно 726 750 -0.3 100% +2.2° 1 км - - - -
Понедельник, 23 Апреля
Время местн. Темп Ветер Видим Явления Облачность нижн/средн/верх Атм. давл. Влжн Точка росы ВНГО R Сост. почвы Tg s
Напр Скр Прв ур.ст ур.м изм
23:00 +4.5° З,С-З 3 - 20 км облака развиваются {ливневые осадки} облачно 727 750 +0.6 79% +1.1° 1 км - - - -
20:00 +5.7° В,Ю-В 2 - 20 км - переменная облачность 726 749 -0.2 53% -3° 1 км 0 - - -
17:00 +9.5° Ю,Ю-З 3 - 20 км - облачно с прояснениями 726 749 +0.4 39% -3.9° 1 км - - - -
14:00 +8.8° Ю,Ю-З 3 - 20 км - преимущественно облачно 726 749 +0.5 50% -1° 1 км - - - -
11:00 +7.6° З 4 - 20 км - облачно с прояснениями 725 749 +0.9 62% +0.8° 1 км - - - -
08:00 +3.1° Ю-В 3 - 20 км - преимущественно облачно 724 748 0 91% +1.8° 1 км 0 Влажная (без луж) -
05:00 +1.8° В,Ю-В 4 - 20 км - облачно 724 748 -0.4 94% +0.9° 1 км - - - -
02:00 +2.9° В 5 - 20 км - облачно 725 748 -0.8 80% -0.2° 1 км - - - -
Воскресенье, 22 Апреля
Время местн. Темп Ветер Видим Явления Облачность нижн/средн/верх Атм. давл. Влжн Точка росы ВНГО R Сост. почвы Tg s
Напр Скр Прв ур.ст ур.м изм
23:00 +5.7° Ю-В 4 10 20 км - облачно 726 749 +0.6 52% -3.3° 1 км - - - -
20:00 +6.2° Ю-В 4 11 20 км - облачно 725 748 -0.2 49% -3.6° 1 км 0 - - -
17:00 +5.3° Ю,Ю-В 4 13 20 км небо без изменений {ливневые осадки} облачно 725 749 -0.7 51% -4.1° 1 км - - - -
14:00 +3.2° Ю,Ю-В 7 14 20 км - облачно 726 750 -1 59% -4.1° 1 км - - - -
11:00 +1.8° Ю-В 5 11 20 км - облачно 727 751 -1.7 54% -6.5° 1 км - - - -
08:00 -2.4° Ю-В 3 - 20 км - облачно 729 753 -0.8 57% -9.7° более 2.5 км 0 Замерзшая -7° -
05:00 -6.8° Ю,Ю-В 1 - 20 км - облачно 729 754 -0.6 71% -11.2° более 2.5 км - - - -
02:00 -4.8° С-З 1 - 20 км - ясно 730 754 -0.2 56% -12.3° более 2.5 км - - - -
Суббота, 21 Апреля
Время местн. Темп Ветер Видим Явления Облачность нижн/средн/верх Атм. давл. Влжн Точка росы ВНГО R Сост. почвы Tg s
Напр Скр Прв ур.ст ур.м изм
23:00 -3.3° С,С-В 3 - 20 км - ясно 730 755 +0.5 49% -12.4° более 2.5 км - - - -
20:00 +1.7° С,С-З 2 - 20 км - облачно с прояснениями 730 754 -0.2 29% -14.2° 1 км 0 - - -
17:00 +3° Ю 2 - 20 км - преимущественно облачно 730 754 -0.6 25% -14.9° 1 км - - - -
14:00 +1.4° С-В 2 - 20 км - переменная облачность 731 755 -0.7 31% -13.8° более 2.5 км - - - -
11:00 -1.2° З,С-З 2 - 20 км - ясно 731 756 -0.4 38% -13.7° более 2.5 км - - - -
08:00 -3.6° С 3 - 20 км - ясно 732 756 +0.3 47% -13.3° более 2.5 км 0 Замерзшая -6° -